sensor_id;sensor_type;location;lat;lon;timestamp;P1;durP1;ratioP1;P2;durP2;ratioP2
18090;SDS011;9172;49.948;9.208;2022-10-18T00:01:12;6.67;;;2.87;;
18090;SDS011;9172;49.948;9.208;2022-10-18T00:03:42;4.70;;;2.80;;
18090;SDS011;9172;49.948;9.208;2022-10-18T00:06:11;11.20;;;3.10;;
18090;SDS011;9172;49.948;9.208;2022-10-18T00:08:40;8.00;;;3.07;;
18090;SDS011;9172;49.948;9.208;2022-10-18T00:11:10;6.43;;;3.30;;
18090;SDS011;9172;49.948;9.208;2022-10-18T00:13:39;11.30;;;3.03;;
18090;SDS011;9172;49.948;9.208;2022-10-18T00:16:10;3.87;;;2.57;;
18090;SDS011;9172;49.948;9.208;2022-10-18T00:18:41;8.80;;;3.57;;
18090;SDS011;9172;49.948;9.208;2022-10-18T00:21:11;23.33;;;3.23;;
18090;SDS011;9172;49.948;9.208;2022-10-18T00:23:42;9.90;;;3.10;;
18090;SDS011;9172;49.948;9.208;2022-10-18T00:26:12;14.37;;;3.37;;
18090;SDS011;9172;49.948;9.208;2022-10-18T00:28:43;10.03;;;3.03;;
18090;SDS011;9172;49.948;9.208;2022-10-18T00:31:13;15.07;;;3.20;;
18090;SDS011;9172;49.948;9.208;2022-10-18T00:33:43;12.27;;;3.20;;
18090;SDS011;9172;49.948;9.208;2022-10-18T00:36:14;8.50;;;3.00;;
18090;SDS011;9172;49.948;9.208;2022-10-18T00:38:44;15.00;;;3.67;;
18090;SDS011;9172;49.948;9.208;2022-10-18T00:41:15;10.50;;;3.00;;
18090;SDS011;9172;49.948;9.208;2022-10-18T00:43:55;11.33;;;2.83;;
18090;SDS011;9172;49.948;9.208;2022-10-18T00:46:27;6.53;;;2.97;;
18090;SDS011;9172;49.948;9.208;2022-10-18T00:48:57;10.50;;;3.03;;
18090;SDS011;9172;49.948;9.208;2022-10-18T00:51:29;4.43;;;2.90;;
18090;SDS011;9172;49.948;9.208;2022-10-18T00:54:00;10.73;;;3.60;;
18090;SDS011;9172;49.948;9.208;2022-10-18T00:56:29;10.50;;;3.10;;
18090;SDS011;9172;49.948;9.208;2022-10-18T00:59:00;6.67;;;3.40;;
18090;SDS011;9172;49.948;9.208;2022-10-18T01:01:29;5.63;;;3.30;;
18090;SDS011;9172;49.948;9.208;2022-10-18T01:03:58;8.43;;;2.80;;
18090;SDS011;9172;49.948;9.208;2022-10-18T01:06:28;10.40;;;3.37;;
18090;SDS011;9172;49.948;9.208;2022-10-18T01:08:59;16.30;;;3.07;;
18090;SDS011;9172;49.948;9.208;2022-10-18T01:11:40;8.97;;;3.40;;
18090;SDS011;9172;49.948;9.208;2022-10-18T01:14:16;12.43;;;3.70;;
18090;SDS011;9172;49.948;9.208;2022-10-18T01:16:48;7.27;;;3.50;;
18090;SDS011;9172;49.948;9.208;2022-10-18T01:19:41;5.37;;;2.80;;
18090;SDS011;9172;49.948;9.208;2022-10-18T01:22:18;10.70;;;3.53;;
18090;SDS011;9172;49.948;9.208;2022-10-18T01:27:56;8.43;;;2.80;;
18090;SDS011;9172;49.948;9.208;2022-10-18T01:30:37;13.17;;;3.70;;
18090;SDS011;9172;49.948;9.208;2022-10-18T01:33:20;8.30;;;3.13;;
18090;SDS011;9172;49.948;9.208;2022-10-18T01:35:56;7.43;;;3.10;;
18090;SDS011;9172;49.948;9.208;2022-10-18T01:38:28;11.33;;;3.00;;
18090;SDS011;9172;49.948;9.208;2022-10-18T01:40:58;4.73;;;3.00;;
18090;SDS011;9172;49.948;9.208;2022-10-18T01:43:28;8.47;;;2.90;;
18090;SDS011;9172;49.948;9.208;2022-10-18T01:45:58;7.67;;;3.57;;
18090;SDS011;9172;49.948;9.208;2022-10-18T01:48:30;12.37;;;3.40;;
18090;SDS011;9172;49.948;9.208;2022-10-18T01:51:02;9.63;;;3.33;;
18090;SDS011;9172;49.948;9.208;2022-10-18T01:53:32;5.67;;;3.10;;
18090;SDS011;9172;49.948;9.208;2022-10-18T01:56:11;9.67;;;3.30;;
18090;SDS011;9172;49.948;9.208;2022-10-18T01:58:47;15.53;;;3.47;;
18090;SDS011;9172;49.948;9.208;2022-10-18T02:01:42;7.93;;;3.17;;
18090;SDS011;9172;49.948;9.208;2022-10-18T02:04:18;6.83;;;3.13;;
18090;SDS011;9172;49.948;9.208;2022-10-18T02:06:52;4.30;;;2.80;;
18090;SDS011;9172;49.948;9.208;2022-10-18T02:09:23;7.27;;;3.87;;
18090;SDS011;9172;49.948;9.208;2022-10-18T02:11:56;9.53;;;3.27;;
18090;SDS011;9172;49.948;9.208;2022-10-18T02:14:27;12.30;;;3.70;;
18090;SDS011;9172;49.948;9.208;2022-10-18T02:16:57;12.53;;;3.20;;
18090;SDS011;9172;49.948;9.208;2022-10-18T02:19:29;8.23;;;3.33;;
18090;SDS011;9172;49.948;9.208;2022-10-18T02:21:59;5.67;;;3.50;;
18090;SDS011;9172;49.948;9.208;2022-10-18T02:24:32;11.60;;;3.10;;
18090;SDS011;9172;49.948;9.208;2022-10-18T02:27:03;7.90;;;3.20;;
18090;SDS011;9172;49.948;9.208;2022-10-18T02:29:32;8.67;;;3.13;;
18090;SDS011;9172;49.948;9.208;2022-10-18T02:32:03;11.27;;;3.70;;
18090;SDS011;9172;49.948;9.208;2022-10-18T02:34:35;10.33;;;3.40;;
18090;SDS011;9172;49.948;9.208;2022-10-18T02:37:06;11.27;;;3.50;;
18090;SDS011;9172;49.948;9.208;2022-10-18T02:39:38;9.37;;;3.83;;
18090;SDS011;9172;49.948;9.208;2022-10-18T02:42:08;13.57;;;4.53;;
18090;SDS011;9172;49.948;9.208;2022-10-18T02:44:39;21.70;;;4.30;;
18090;SDS011;9172;49.948;9.208;2022-10-18T02:47:10;13.77;;;4.10;;
18090;SDS011;9172;49.948;9.208;2022-10-18T02:49:39;9.27;;;4.07;;
18090;SDS011;9172;49.948;9.208;2022-10-18T02:52:07;11.63;;;4.07;;
18090;SDS011;9172;49.948;9.208;2022-10-18T02:54:36;9.60;;;4.33;;
18090;SDS011;9172;49.948;9.208;2022-10-18T02:57:04;4.50;;;3.30;;
18090;SDS011;9172;49.948;9.208;2022-10-18T02:59:34;6.63;;;3.97;;
18090;SDS011;9172;49.948;9.208;2022-10-18T03:02:03;4.93;;;3.20;;
18090;SDS011;9172;49.948;9.208;2022-10-18T03:04:32;14.13;;;4.13;;
18090;SDS011;9172;49.948;9.208;2022-10-18T03:07:01;7.93;;;4.03;;
18090;SDS011;9172;49.948;9.208;2022-10-18T03:09:30;16.20;;;3.60;;
18090;SDS011;9172;49.948;9.208;2022-10-18T03:11:59;10.03;;;3.30;;
18090;SDS011;9172;49.948;9.208;2022-10-18T03:14:28;16.07;;;3.97;;
18090;SDS011;9172;49.948;9.208;2022-10-18T03:16:57;8.97;;;4.30;;
18090;SDS011;9172;49.948;9.208;2022-10-18T03:19:26;11.33;;;4.00;;
18090;SDS011;9172;49.948;9.208;2022-10-18T03:21:55;10.50;;;4.20;;
18090;SDS011;9172;49.948;9.208;2022-10-18T03:24:23;6.57;;;3.43;;
18090;SDS011;9172;49.948;9.208;2022-10-18T03:26:52;7.27;;;3.40;;
18090;SDS011;9172;49.948;9.208;2022-10-18T03:29:21;7.97;;;3.30;;
18090;SDS011;9172;49.948;9.208;2022-10-18T03:31:50;6.07;;;3.03;;
18090;SDS011;9172;49.948;9.208;2022-10-18T03:34:19;8.43;;;3.40;;
18090;SDS011;9172;49.948;9.208;2022-10-18T03:36:47;6.00;;;3.10;;
18090;SDS011;9172;49.948;9.208;2022-10-18T03:39:16;7.93;;;3.00;;
18090;SDS011;9172;49.948;9.208;2022-10-18T03:41:45;16.03;;;3.03;;
18090;SDS011;9172;49.948;9.208;2022-10-18T03:44:13;3.77;;;2.40;;
18090;SDS011;9172;49.948;9.208;2022-10-18T03:46:42;5.20;;;3.00;;
18090;SDS011;9172;49.948;9.208;2022-10-18T03:49:10;7.57;;;2.97;;
18090;SDS011;9172;49.948;9.208;2022-10-18T03:51:40;8.43;;;3.17;;
18090;SDS011;9172;49.948;9.208;2022-10-18T03:54:09;5.60;;;2.90;;
18090;SDS011;9172;49.948;9.208;2022-10-18T03:56:37;9.80;;;3.07;;
18090;SDS011;9172;49.948;9.208;2022-10-18T03:59:06;6.60;;;3.23;;
18090;SDS011;9172;49.948;9.208;2022-10-18T04:01:35;7.77;;;2.87;;
18090;SDS011;9172;49.948;9.208;2022-10-18T04:04:04;11.60;;;2.90;;
18090;SDS011;9172;49.948;9.208;2022-10-18T04:06:33;11.20;;;2.93;;
18090;SDS011;9172;49.948;9.208;2022-10-18T04:09:03;9.00;;;2.90;;
18090;SDS011;9172;49.948;9.208;2022-10-18T04:11:32;13.37;;;3.17;;
18090;SDS011;9172;49.948;9.208;2022-10-18T04:14:01;9.27;;;3.67;;
18090;SDS011;9172;49.948;9.208;2022-10-18T04:16:30;5.53;;;3.13;;
18090;SDS011;9172;49.948;9.208;2022-10-18T04:18:58;7.87;;;3.20;;
18090;SDS011;9172;49.948;9.208;2022-10-18T04:21:27;13.50;;;3.57;;
18090;SDS011;9172;49.948;9.208;2022-10-18T04:23:55;8.17;;;3.73;;
18090;SDS011;9172;49.948;9.208;2022-10-18T04:26:25;5.53;;;2.87;;
18090;SDS011;9172;49.948;9.208;2022-10-18T04:28:53;9.97;;;4.20;;
18090;SDS011;9172;49.948;9.208;2022-10-18T04:31:22;6.73;;;3.57;;
18090;SDS011;9172;49.948;9.208;2022-10-18T04:33:50;6.83;;;3.80;;
18090;SDS011;9172;49.948;9.208;2022-10-18T04:36:19;9.53;;;3.70;;
18090;SDS011;9172;49.948;9.208;2022-10-18T04:38:48;6.27;;;3.40;;
18090;SDS011;9172;49.948;9.208;2022-10-18T04:41:16;8.23;;;3.47;;
18090;SDS011;9172;49.948;9.208;2022-10-18T04:43:45;12.53;;;4.57;;
18090;SDS011;9172;49.948;9.208;2022-10-18T04:46:13;15.80;;;4.50;;
18090;SDS011;9172;49.948;9.208;2022-10-18T04:48:42;8.53;;;3.77;;
18090;SDS011;9172;49.948;9.208;2022-10-18T04:51:11;10.67;;;4.17;;
18090;SDS011;9172;49.948;9.208;2022-10-18T04:53:42;7.13;;;4.00;;
18090;SDS011;9172;49.948;9.208;2022-10-18T04:56:11;8.93;;;3.53;;
18090;SDS011;9172;49.948;9.208;2022-10-18T04:58:40;10.10;;;4.43;;
18090;SDS011;9172;49.948;9.208;2022-10-18T05:01:09;7.87;;;3.80;;
18090;SDS011;9172;49.948;9.208;2022-10-18T05:03:38;13.23;;;4.37;;
18090;SDS011;9172;49.948;9.208;2022-10-18T05:06:07;10.73;;;4.10;;
18090;SDS011;9172;49.948;9.208;2022-10-18T05:08:36;7.57;;;3.47;;
18090;SDS011;9172;49.948;9.208;2022-10-18T05:11:05;7.90;;;4.63;;
18090;SDS011;9172;49.948;9.208;2022-10-18T05:13:34;6.20;;;3.53;;
18090;SDS011;9172;49.948;9.208;2022-10-18T05:16:03;10.80;;;3.80;;
18090;SDS011;9172;49.948;9.208;2022-10-18T05:18:33;7.77;;;4.27;;
18090;SDS011;9172;49.948;9.208;2022-10-18T05:21:02;13.43;;;4.90;;
18090;SDS011;9172;49.948;9.208;2022-10-18T05:23:31;11.10;;;4.20;;
18090;SDS011;9172;49.948;9.208;2022-10-18T05:26:00;11.13;;;4.00;;
18090;SDS011;9172;49.948;9.208;2022-10-18T05:28:30;9.63;;;4.33;;
18090;SDS011;9172;49.948;9.208;2022-10-18T05:30:59;7.73;;;3.33;;
18090;SDS011;9172;49.948;9.208;2022-10-18T05:33:29;9.70;;;4.37;;
18090;SDS011;9172;49.948;9.208;2022-10-18T05:35:57;12.97;;;4.17;;
18090;SDS011;9172;49.948;9.208;2022-10-18T05:38:26;6.33;;;3.47;;
18090;SDS011;9172;49.948;9.208;2022-10-18T05:40:56;6.00;;;3.60;;
18090;SDS011;9172;49.948;9.208;2022-10-18T05:43:26;4.73;;;3.33;;
18090;SDS011;9172;49.948;9.208;2022-10-18T05:45:55;7.13;;;3.80;;
18090;SDS011;9172;49.948;9.208;2022-10-18T05:48:24;8.33;;;4.00;;
18090;SDS011;9172;49.948;9.208;2022-10-18T05:50:56;11.00;;;4.07;;
18090;SDS011;9172;49.948;9.208;2022-10-18T05:53:25;7.97;;;3.90;;
18090;SDS011;9172;49.948;9.208;2022-10-18T05:55:54;7.43;;;3.90;;
18090;SDS011;9172;49.948;9.208;2022-10-18T05:58:27;5.27;;;3.77;;
18090;SDS011;9172;49.948;9.208;2022-10-18T06:00:57;7.50;;;4.17;;
18090;SDS011;9172;49.948;9.208;2022-10-18T06:03:26;9.97;;;4.20;;
18090;SDS011;9172;49.948;9.208;2022-10-18T06:05:58;9.80;;;4.70;;
18090;SDS011;9172;49.948;9.208;2022-10-18T06:08:27;9.70;;;4.27;;
18090;SDS011;9172;49.948;9.208;2022-10-18T06:10:56;7.40;;;3.90;;
18090;SDS011;9172;49.948;9.208;2022-10-18T06:13:24;11.17;;;4.10;;
18090;SDS011;9172;49.948;9.208;2022-10-18T06:15:55;12.80;;;4.63;;
18090;SDS011;9172;49.948;9.208;2022-10-18T06:18:23;11.60;;;4.43;;
18090;SDS011;9172;49.948;9.208;2022-10-18T06:20:55;21.57;;;4.80;;
18090;SDS011;9172;49.948;9.208;2022-10-18T06:23:24;7.63;;;4.00;;
18090;SDS011;9172;49.948;9.208;2022-10-18T06:25:53;9.17;;;4.23;;
18090;SDS011;9172;49.948;9.208;2022-10-18T06:28:25;12.53;;;4.13;;
18090;SDS011;9172;49.948;9.208;2022-10-18T06:30:54;8.37;;;3.73;;
18090;SDS011;9172;49.948;9.208;2022-10-18T06:33:24;6.27;;;3.80;;
18090;SDS011;9172;49.948;9.208;2022-10-18T06:35:54;12.10;;;3.47;;
18090;SDS011;9172;49.948;9.208;2022-10-18T06:38:23;8.10;;;3.67;;
18090;SDS011;9172;49.948;9.208;2022-10-18T06:40:52;5.97;;;3.53;;
18090;SDS011;9172;49.948;9.208;2022-10-18T06:43:21;6.57;;;3.53;;
18090;SDS011;9172;49.948;9.208;2022-10-18T06:45:51;6.20;;;3.70;;
18090;SDS011;9172;49.948;9.208;2022-10-18T06:48:20;6.13;;;3.43;;
18090;SDS011;9172;49.948;9.208;2022-10-18T06:50:50;11.00;;;4.57;;
18090;SDS011;9172;49.948;9.208;2022-10-18T06:53:20;15.17;;;4.27;;
18090;SDS011;9172;49.948;9.208;2022-10-18T06:55:49;10.57;;;4.23;;
18090;SDS011;9172;49.948;9.208;2022-10-18T06:58:18;6.60;;;4.30;;
18090;SDS011;9172;49.948;9.208;2022-10-18T07:00:46;9.50;;;3.80;;
18090;SDS011;9172;49.948;9.208;2022-10-18T07:03:15;5.77;;;3.53;;
18090;SDS011;9172;49.948;9.208;2022-10-18T07:05:43;8.13;;;3.63;;
18090;SDS011;9172;49.948;9.208;2022-10-18T07:08:13;7.77;;;4.10;;
18090;SDS011;9172;49.948;9.208;2022-10-18T07:10:49;7.10;;;4.10;;
18090;SDS011;9172;49.948;9.208;2022-10-18T07:13:18;11.20;;;3.83;;
18090;SDS011;9172;49.948;9.208;2022-10-18T07:15:47;7.07;;;3.80;;
18090;SDS011;9172;49.948;9.208;2022-10-18T07:18:18;9.83;;;3.40;;
18090;SDS011;9172;49.948;9.208;2022-10-18T07:20:47;8.17;;;4.60;;
18090;SDS011;9172;49.948;9.208;2022-10-18T07:23:16;6.93;;;4.20;;
18090;SDS011;9172;49.948;9.208;2022-10-18T07:25:46;8.17;;;4.03;;
18090;SDS011;9172;49.948;9.208;2022-10-18T07:28:15;9.40;;;4.50;;
18090;SDS011;9172;49.948;9.208;2022-10-18T07:30:44;7.00;;;4.50;;
18090;SDS011;9172;49.948;9.208;2022-10-18T07:33:13;11.10;;;4.83;;
18090;SDS011;9172;49.948;9.208;2022-10-18T07:35:41;10.70;;;4.43;;
18090;SDS011;9172;49.948;9.208;2022-10-18T07:38:10;15.10;;;4.67;;
18090;SDS011;9172;49.948;9.208;2022-10-18T07:40:40;10.90;;;4.90;;
18090;SDS011;9172;49.948;9.208;2022-10-18T07:43:09;7.87;;;5.20;;
18090;SDS011;9172;49.948;9.208;2022-10-18T07:45:39;13.60;;;5.80;;
18090;SDS011;9172;49.948;9.208;2022-10-18T07:48:09;9.00;;;4.90;;
18090;SDS011;9172;49.948;9.208;2022-10-18T07:50:38;10.83;;;6.23;;
18090;SDS011;9172;49.948;9.208;2022-10-18T07:53:07;10.10;;;6.40;;
18090;SDS011;9172;49.948;9.208;2022-10-18T07:55:36;10.57;;;6.97;;
18090;SDS011;9172;49.948;9.208;2022-10-18T07:58:04;16.90;;;7.77;;
18090;SDS011;9172;49.948;9.208;2022-10-18T08:00:34;11.43;;;6.87;;
18090;SDS011;9172;49.948;9.208;2022-10-18T08:03:03;10.33;;;7.13;;
18090;SDS011;9172;49.948;9.208;2022-10-18T08:05:31;14.43;;;7.30;;
18090;SDS011;9172;49.948;9.208;2022-10-18T08:08:01;13.27;;;8.07;;
18090;SDS011;9172;49.948;9.208;2022-10-18T08:10:29;15.70;;;7.77;;
18090;SDS011;9172;49.948;9.208;2022-10-18T08:12:58;18.67;;;7.50;;
18090;SDS011;9172;49.948;9.208;2022-10-18T08:15:27;15.50;;;7.97;;
18090;SDS011;9172;49.948;9.208;2022-10-18T08:17:55;12.77;;;6.93;;
18090;SDS011;9172;49.948;9.208;2022-10-18T08:20:24;15.80;;;7.50;;
18090;SDS011;9172;49.948;9.208;2022-10-18T08:22:52;14.00;;;6.80;;
18090;SDS011;9172;49.948;9.208;2022-10-18T08:25:22;11.90;;;6.97;;
18090;SDS011;9172;49.948;9.208;2022-10-18T08:27:51;15.80;;;7.03;;
18090;SDS011;9172;49.948;9.208;2022-10-18T08:30:21;13.30;;;6.87;;
18090;SDS011;9172;49.948;9.208;2022-10-18T08:32:49;15.57;;;7.57;;
18090;SDS011;9172;49.948;9.208;2022-10-18T08:35:18;13.27;;;6.70;;
18090;SDS011;9172;49.948;9.208;2022-10-18T08:37:47;15.07;;;7.93;;
18090;SDS011;9172;49.948;9.208;2022-10-18T08:40:16;15.17;;;7.47;;
18090;SDS011;9172;49.948;9.208;2022-10-18T08:42:51;14.77;;;7.13;;
18090;SDS011;9172;49.948;9.208;2022-10-18T08:45:27;13.40;;;6.87;;
18090;SDS011;9172;49.948;9.208;2022-10-18T08:47:57;11.47;;;7.50;;
18090;SDS011;9172;49.948;9.208;2022-10-18T08:50:27;14.00;;;7.37;;
18090;SDS011;9172;49.948;9.208;2022-10-18T08:53:03;11.40;;;7.30;;
18090;SDS011;9172;49.948;9.208;2022-10-18T08:55:34;15.83;;;7.47;;
18090;SDS011;9172;49.948;9.208;2022-10-18T08:58:12;15.27;;;6.83;;
18090;SDS011;9172;49.948;9.208;2022-10-18T09:00:45;14.73;;;7.43;;
18090;SDS011;9172;49.948;9.208;2022-10-18T09:03:22;14.83;;;7.13;;
18090;SDS011;9172;49.948;9.208;2022-10-18T09:05:54;16.93;;;7.00;;
18090;SDS011;9172;49.948;9.208;2022-10-18T09:08:31;15.37;;;7.47;;
18090;SDS011;9172;49.948;9.208;2022-10-18T09:11:17;17.20;;;7.77;;
18090;SDS011;9172;49.948;9.208;2022-10-18T09:16:58;13.77;;;6.47;;
18090;SDS011;9172;49.948;9.208;2022-10-18T09:19:34;15.63;;;7.33;;
18090;SDS011;9172;49.948;9.208;2022-10-18T09:22:08;31.63;;;9.47;;
18090;SDS011;9172;49.948;9.208;2022-10-18T09:24:40;10.57;;;6.07;;
18090;SDS011;9172;49.948;9.208;2022-10-18T09:27:13;24.10;;;7.50;;
18090;SDS011;9172;49.948;9.208;2022-10-18T09:29:47;13.53;;;7.40;;
18090;SDS011;9172;49.948;9.208;2022-10-18T09:32:24;15.73;;;8.00;;
18090;SDS011;9172;49.948;9.208;2022-10-18T09:34:56;15.43;;;8.37;;
18090;SDS011;9172;49.948;9.208;2022-10-18T09:37:28;20.93;;;8.23;;
18090;SDS011;9172;49.948;9.208;2022-10-18T09:40:01;19.67;;;9.33;;
18090;SDS011;9172;49.948;9.208;2022-10-18T09:42:33;16.87;;;8.40;;
18090;SDS011;9172;49.948;9.208;2022-10-18T09:45:05;14.07;;;7.83;;
18090;SDS011;9172;49.948;9.208;2022-10-18T09:47:35;17.30;;;8.93;;
18090;SDS011;9172;49.948;9.208;2022-10-18T09:50:13;16.00;;;9.07;;
18090;SDS011;9172;49.948;9.208;2022-10-18T09:52:43;14.83;;;9.93;;
18090;SDS011;9172;49.948;9.208;2022-10-18T09:55:16;20.20;;;10.10;;
18090;SDS011;9172;49.948;9.208;2022-10-18T09:57:47;16.47;;;10.03;;
18090;SDS011;9172;49.948;9.208;2022-10-18T10:00:21;21.33;;;10.30;;
18090;SDS011;9172;49.948;9.208;2022-10-18T10:02:53;18.00;;;9.80;;
18090;SDS011;9172;49.948;9.208;2022-10-18T10:05:22;20.17;;;10.23;;
18090;SDS011;9172;49.948;9.208;2022-10-18T10:07:55;18.77;;;10.33;;
18090;SDS011;9172;49.948;9.208;2022-10-18T10:10:25;22.60;;;11.43;;
18090;SDS011;9172;49.948;9.208;2022-10-18T10:13:02;18.37;;;10.40;;
18090;SDS011;9172;49.948;9.208;2022-10-18T10:15:32;20.33;;;10.53;;
18090;SDS011;9172;49.948;9.208;2022-10-18T10:18:03;20.57;;;9.83;;
18090;SDS011;9172;49.948;9.208;2022-10-18T10:20:34;21.20;;;9.40;;
18090;SDS011;9172;49.948;9.208;2022-10-18T10:23:07;22.47;;;9.03;;
18090;SDS011;9172;49.948;9.208;2022-10-18T10:25:37;15.17;;;8.57;;
18090;SDS011;9172;49.948;9.208;2022-10-18T10:28:12;13.87;;;8.70;;
18090;SDS011;9172;49.948;9.208;2022-10-18T10:30:42;17.80;;;8.27;;
18090;SDS011;9172;49.948;9.208;2022-10-18T10:33:29;14.97;;;7.63;;
18090;SDS011;9172;49.948;9.208;2022-10-18T10:35:59;11.60;;;7.20;;
18090;SDS011;9172;49.948;9.208;2022-10-18T10:38:30;13.33;;;6.20;;
18090;SDS011;9172;49.948;9.208;2022-10-18T10:41:00;34.37;;;20.37;;
18090;SDS011;9172;49.948;9.208;2022-10-18T10:43:31;16.13;;;8.53;;
18090;SDS011;9172;49.948;9.208;2022-10-18T10:46:01;16.77;;;4.90;;
18090;SDS011;9172;49.948;9.208;2022-10-18T10:48:33;9.10;;;4.60;;
18090;SDS011;9172;49.948;9.208;2022-10-18T10:51:08;8.93;;;4.10;;
18090;SDS011;9172;49.948;9.208;2022-10-18T10:53:39;9.93;;;5.13;;
18090;SDS011;9172;49.948;9.208;2022-10-18T10:56:20;14.70;;;5.80;;
18090;SDS011;9172;49.948;9.208;2022-10-18T10:58:52;11.30;;;6.00;;
18090;SDS011;9172;49.948;9.208;2022-10-18T11:01:24;12.03;;;4.73;;
18090;SDS011;9172;49.948;9.208;2022-10-18T11:03:58;10.53;;;4.47;;
18090;SDS011;9172;49.948;9.208;2022-10-18T11:09:38;6.13;;;2.53;;
18090;SDS011;9172;49.948;9.208;2022-10-18T11:12:24;9.07;;;2.43;;
18090;SDS011;9172;49.948;9.208;2022-10-18T11:15:12;3.00;;;2.57;;
18090;SDS011;9172;49.948;9.208;2022-10-18T11:17:46;3.77;;;2.10;;
18090;SDS011;9172;49.948;9.208;2022-10-18T11:20:20;5.03;;;1.97;;
18090;SDS011;9172;49.948;9.208;2022-10-18T11:22:58;2.90;;;1.30;;
18090;SDS011;9172;49.948;9.208;2022-10-18T11:25:37;4.87;;;1.60;;
18090;SDS011;9172;49.948;9.208;2022-10-18T11:28:11;5.43;;;1.47;;
18090;SDS011;9172;49.948;9.208;2022-10-18T11:30:46;4.73;;;1.37;;
18090;SDS011;9172;49.948;9.208;2022-10-18T11:33:21;3.30;;;1.30;;
18090;SDS011;9172;49.948;9.208;2022-10-18T11:35:53;2.13;;;1.77;;
18090;SDS011;9172;49.948;9.208;2022-10-18T11:38:29;2.23;;;1.47;;
18090;SDS011;9172;49.948;9.208;2022-10-18T11:41:05;6.03;;;1.47;;
18090;SDS011;9172;49.948;9.208;2022-10-18T11:43:39;7.07;;;2.00;;
18090;SDS011;9172;49.948;9.208;2022-10-18T11:46:12;3.10;;;1.60;;
18090;SDS011;9172;49.948;9.208;2022-10-18T11:48:46;3.47;;;1.70;;
18090;SDS011;9172;49.948;9.208;2022-10-18T11:51:24;3.03;;;1.70;;
18090;SDS011;9172;49.948;9.208;2022-10-18T11:53:59;3.10;;;1.67;;
18090;SDS011;9172;49.948;9.208;2022-10-18T11:56:34;1.70;;;1.37;;
18090;SDS011;9172;49.948;9.208;2022-10-18T11:59:08;3.50;;;1.47;;
18090;SDS011;9172;49.948;9.208;2022-10-18T12:01:50;3.47;;;1.40;;
18090;SDS011;9172;49.948;9.208;2022-10-18T12:04:22;2.00;;;1.30;;
18090;SDS011;9172;49.948;9.208;2022-10-18T12:09:46;2.80;;;1.67;;
18090;SDS011;9172;49.948;9.208;2022-10-18T12:12:19;3.00;;;1.40;;
18090;SDS011;9172;49.948;9.208;2022-10-18T12:14:51;1.80;;;1.50;;
18090;SDS011;9172;49.948;9.208;2022-10-18T12:17:24;1.90;;;1.40;;
18090;SDS011;9172;49.948;9.208;2022-10-18T12:19:53;2.87;;;1.60;;
18090;SDS011;9172;49.948;9.208;2022-10-18T12:22:26;2.77;;;1.80;;
18090;SDS011;9172;49.948;9.208;2022-10-18T12:24:57;3.57;;;1.90;;
18090;SDS011;9172;49.948;9.208;2022-10-18T12:27:30;3.17;;;1.67;;
18090;SDS011;9172;49.948;9.208;2022-10-18T12:30:01;5.90;;;1.80;;
18090;SDS011;9172;49.948;9.208;2022-10-18T12:32:33;2.97;;;1.77;;
18090;SDS011;9172;49.948;9.208;2022-10-18T12:35:04;4.63;;;2.10;;
18090;SDS011;9172;49.948;9.208;2022-10-18T12:37:55;2.63;;;1.67;;
18090;SDS011;9172;49.948;9.208;2022-10-18T12:40:30;3.23;;;1.97;;
18090;SDS011;9172;49.948;9.208;2022-10-18T12:43:06;2.93;;;2.07;;
18090;SDS011;9172;49.948;9.208;2022-10-18T12:45:46;6.73;;;2.50;;
18090;SDS011;9172;49.948;9.208;2022-10-18T12:48:28;3.53;;;1.90;;
18090;SDS011;9172;49.948;9.208;2022-10-18T12:51:04;4.33;;;2.10;;
18090;SDS011;9172;49.948;9.208;2022-10-18T12:53:35;3.97;;;1.80;;
18090;SDS011;9172;49.948;9.208;2022-10-18T13:02:25;2.23;;;1.70;;
18090;SDS011;9172;49.948;9.208;2022-10-18T13:04:55;3.20;;;1.93;;
18090;SDS011;9172;49.948;9.208;2022-10-18T13:07:32;3.83;;;2.03;;
18090;SDS011;9172;49.948;9.208;2022-10-18T13:13:19;4.10;;;2.30;;
18090;SDS011;9172;49.948;9.208;2022-10-18T13:16:01;3.20;;;2.30;;
18090;SDS011;9172;49.948;9.208;2022-10-18T13:18:37;4.93;;;2.90;;
18090;SDS011;9172;49.948;9.208;2022-10-18T13:21:12;3.93;;;2.87;;
18090;SDS011;9172;49.948;9.208;2022-10-18T13:23:46;2.80;;;2.53;;
18090;SDS011;9172;49.948;9.208;2022-10-18T13:26:22;4.93;;;3.03;;
18090;SDS011;9172;49.948;9.208;2022-10-18T13:28:55;4.40;;;2.70;;
18090;SDS011;9172;49.948;9.208;2022-10-18T13:31:28;4.23;;;2.83;;
18090;SDS011;9172;49.948;9.208;2022-10-18T13:34:23;6.70;;;3.73;;
18090;SDS011;9172;49.948;9.208;2022-10-18T13:36:55;7.03;;;3.23;;
18090;SDS011;9172;49.948;9.208;2022-10-18T13:39:25;4.33;;;3.37;;
18090;SDS011;9172;49.948;9.208;2022-10-18T13:54:38;6.87;;;3.17;;
18090;SDS011;9172;49.948;9.208;2022-10-18T13:57:31;6.40;;;3.67;;
18090;SDS011;9172;49.948;9.208;2022-10-18T14:00:14;4.37;;;2.80;;
18090;SDS011;9172;49.948;9.208;2022-10-18T14:02:55;12.33;;;3.60;;
18090;SDS011;9172;49.948;9.208;2022-10-18T14:05:49;4.30;;;2.43;;
18090;SDS011;9172;49.948;9.208;2022-10-18T14:08:23;5.47;;;3.20;;
18090;SDS011;9172;49.948;9.208;2022-10-18T14:10:55;3.93;;;2.80;;
18090;SDS011;9172;49.948;9.208;2022-10-18T14:13:29;4.57;;;3.20;;
18090;SDS011;9172;49.948;9.208;2022-10-18T14:16:09;8.70;;;3.23;;
18090;SDS011;9172;49.948;9.208;2022-10-18T14:18:42;6.50;;;2.80;;
18090;SDS011;9172;49.948;9.208;2022-10-18T14:21:17;4.40;;;2.70;;
18090;SDS011;9172;49.948;9.208;2022-10-18T14:23:48;3.70;;;2.43;;
18090;SDS011;9172;49.948;9.208;2022-10-18T14:26:19;4.97;;;2.20;;
18090;SDS011;9172;49.948;9.208;2022-10-18T14:29:01;4.40;;;2.17;;
18090;SDS011;9172;49.948;9.208;2022-10-18T14:31:32;3.23;;;2.10;;
18090;SDS011;9172;49.948;9.208;2022-10-18T14:34:04;2.70;;;1.70;;
18090;SDS011;9172;49.948;9.208;2022-10-18T14:36:38;5.07;;;1.73;;
18090;SDS011;9172;49.948;9.208;2022-10-18T14:39:16;4.13;;;1.70;;
18090;SDS011;9172;49.948;9.208;2022-10-18T14:41:49;10.30;;;3.50;;
18090;SDS011;9172;49.948;9.208;2022-10-18T14:44:20;4.13;;;1.87;;
18090;SDS011;9172;49.948;9.208;2022-10-18T14:46:57;2.47;;;1.50;;
18090;SDS011;9172;49.948;9.208;2022-10-18T14:49:26;4.53;;;1.90;;
18090;SDS011;9172;49.948;9.208;2022-10-18T14:51:56;2.23;;;1.40;;
18090;SDS011;9172;49.948;9.208;2022-10-18T14:54:27;2.03;;;1.50;;
18090;SDS011;9172;49.948;9.208;2022-10-18T14:56:58;2.57;;;1.50;;
18090;SDS011;9172;49.948;9.208;2022-10-18T14:59:28;4.27;;;1.87;;
18090;SDS011;9172;49.948;9.208;2022-10-18T15:04:36;1.80;;;1.30;;
18090;SDS011;9172;49.948;9.208;2022-10-18T15:07:06;1.80;;;1.30;;
18090;SDS011;9172;49.948;9.208;2022-10-18T15:12:18;2.83;;;1.60;;
18090;SDS011;9172;49.948;9.208;2022-10-18T15:14:46;4.70;;;1.60;;
18090;SDS011;9172;49.948;9.208;2022-10-18T15:19:53;3.77;;;1.50;;
18090;SDS011;9172;49.948;9.208;2022-10-18T15:22:24;4.20;;;1.83;;
18090;SDS011;9172;49.948;9.208;2022-10-18T15:27:40;2.43;;;1.17;;
18090;SDS011;9172;49.948;9.208;2022-10-18T15:30:15;1.83;;;1.20;;
18090;SDS011;9172;49.948;9.208;2022-10-18T15:32:47;1.47;;;1.00;;
18090;SDS011;9172;49.948;9.208;2022-10-18T15:35:19;1.90;;;1.23;;
18090;SDS011;9172;49.948;9.208;2022-10-18T15:37:50;1.77;;;1.20;;
18090;SDS011;9172;49.948;9.208;2022-10-18T15:40:32;4.00;;;1.70;;
18090;SDS011;9172;49.948;9.208;2022-10-18T15:43:04;3.03;;;1.70;;
18090;SDS011;9172;49.948;9.208;2022-10-18T15:45:36;3.70;;;1.83;;
18090;SDS011;9172;49.948;9.208;2022-10-18T15:48:16;5.87;;;1.53;;
18090;SDS011;9172;49.948;9.208;2022-10-18T15:50:48;3.70;;;1.60;;
18090;SDS011;9172;49.948;9.208;2022-10-18T15:53:31;2.87;;;1.83;;
18090;SDS011;9172;49.948;9.208;2022-10-18T15:59:21;6.80;;;1.50;;
18090;SDS011;9172;49.948;9.208;2022-10-18T16:01:48;2.30;;;1.33;;
18090;SDS011;9172;49.948;9.208;2022-10-18T16:04:23;3.40;;;1.60;;
18090;SDS011;9172;49.948;9.208;2022-10-18T16:06:50;5.27;;;1.50;;
18090;SDS011;9172;49.948;9.208;2022-10-18T16:09:22;1.60;;;1.10;;
18090;SDS011;9172;49.948;9.208;2022-10-18T16:11:51;4.83;;;1.80;;